KHFD/HFD METAR and TAF weather

Enter ICAO airport designator
Station Type Date Time Source
KHFD METAR 2018/12/10 01:53 UTC NOAA

KHFD 100153Z 20004KT 10SM CLR M01/M08 A3020 RMK AO2 SLP225 T10111083


Station Type Date Time Source
KHFD Decoded METAR 2018/12/10 01:53 UTC NOAA

HARTFORD-BRAINARD AIRPORT, CT, United States (KHFD) 41-44N 072-39W 4M
Dec 09, 2018 - 08:53 PM EST / 2018.12.10 0153 UTC
Wind: from the SSW (200 degrees) at 5 MPH (4 KT):0
Visibility: 10 mile(s):0
Sky conditions: clear
Temperature: 30.0 F (-1.1 C)
Windchill: 24 F (-4 C):1
Dew Point: 17.1 F (-8.3 C)
Relative Humidity: 58%
Pressure (altimeter): 30.2 in. Hg (1022 hPa)
ob: KHFD 100153Z 20004KT 10SM CLR M01/M08 A3020 RMK AO2 SLP225 T10111083
cycle: 2

Station Type Date Time Source
KHFD TAF UTC NOAA

Error!


Example: see airport list